sensor_id;sensor_type;location;lat;lon;timestamp;P1;durP1;ratioP1;P2;durP2;ratioP2
22770;SDS011;11552;50.786;4.332;2022-12-07T00:00:25;22.20;;;18.67;;
22770;SDS011;11552;50.786;4.332;2022-12-07T00:02:50;24.35;;;18.20;;
22770;SDS011;11552;50.786;4.332;2022-12-07T00:05:16;24.58;;;18.00;;
22770;SDS011;11552;50.786;4.332;2022-12-07T00:09:14;25.10;;;17.75;;
22770;SDS011;11552;50.786;4.332;2022-12-07T00:14:38;23.48;;;18.25;;
22770;SDS011;11552;50.786;4.332;2022-12-07T00:17:32;23.80;;;18.45;;
22770;SDS011;11552;50.786;4.332;2022-12-07T00:19:58;26.63;;;18.13;;
22770;SDS011;11552;50.786;4.332;2022-12-07T00:22:24;21.75;;;18.33;;
22770;SDS011;11552;50.786;4.332;2022-12-07T00:24:49;21.70;;;19.30;;
22770;SDS011;11552;50.786;4.332;2022-12-07T00:28:26;23.50;;;17.90;;
22770;SDS011;11552;50.786;4.332;2022-12-07T00:30:51;26.13;;;19.17;;
22770;SDS011;11552;50.786;4.332;2022-12-07T00:33:17;23.02;;;17.40;;
22770;SDS011;11552;50.786;4.332;2022-12-07T00:35:42;21.15;;;17.17;;
22770;SDS011;11552;50.786;4.332;2022-12-07T00:38:08;25.35;;;17.85;;
22770;SDS011;11552;50.786;4.332;2022-12-07T00:42:31;29.80;;;18.70;;
22770;SDS011;11552;50.786;4.332;2022-12-07T00:46:56;26.10;;;17.83;;
22770;SDS011;11552;50.786;4.332;2022-12-07T00:49:21;23.30;;;18.95;;
22770;SDS011;11552;50.786;4.332;2022-12-07T00:51:50;22.08;;;18.10;;
22770;SDS011;11552;50.786;4.332;2022-12-07T00:54:15;28.10;;;17.92;;
22770;SDS011;11552;50.786;4.332;2022-12-07T00:56:41;22.05;;;18.75;;
22770;SDS011;11552;50.786;4.332;2022-12-07T00:59:07;28.60;;;19.45;;
22770;SDS011;11552;50.786;4.332;2022-12-07T01:03:01;22.70;;;18.50;;
22770;SDS011;11552;50.786;4.332;2022-12-07T01:05:27;24.88;;;18.55;;
22770;SDS011;11552;50.786;4.332;2022-12-07T01:07:53;27.23;;;19.60;;
22770;SDS011;11552;50.786;4.332;2022-12-07T01:10:18;23.08;;;17.52;;
22770;SDS011;11552;50.786;4.332;2022-12-07T01:13:33;29.35;;;18.85;;
22770;SDS011;11552;50.786;4.332;2022-12-07T01:16:00;24.33;;;18.10;;
22770;SDS011;11552;50.786;4.332;2022-12-07T01:18:28;24.02;;;18.60;;
22770;SDS011;11552;50.786;4.332;2022-12-07T01:23:28;23.20;;;18.80;;
22770;SDS011;11552;50.786;4.332;2022-12-07T01:25:55;22.88;;;17.80;;
22770;SDS011;11552;50.786;4.332;2022-12-07T01:28:23;20.90;;;16.58;;
22770;SDS011;11552;50.786;4.332;2022-12-07T01:30:59;23.02;;;17.60;;
22770;SDS011;11552;50.786;4.332;2022-12-07T01:35:49;23.40;;;17.42;;
22770;SDS011;11552;50.786;4.332;2022-12-07T01:41:20;22.70;;;17.55;;
22770;SDS011;11552;50.786;4.332;2022-12-07T01:44:07;22.23;;;17.17;;
22770;SDS011;11552;50.786;4.332;2022-12-07T01:50:47;22.15;;;16.55;;
22770;SDS011;11552;50.786;4.332;2022-12-07T01:54:59;21.17;;;16.45;;
22770;SDS011;11552;50.786;4.332;2022-12-07T01:57:29;20.30;;;16.70;;
22770;SDS011;11552;50.786;4.332;2022-12-07T01:59:58;22.08;;;16.50;;
22770;SDS011;11552;50.786;4.332;2022-12-07T02:06:47;20.88;;;16.23;;
22770;SDS011;11552;50.786;4.332;2022-12-07T02:09:13;23.90;;;17.80;;
22770;SDS011;11552;50.786;4.332;2022-12-07T02:11:39;20.08;;;16.88;;
22770;SDS011;11552;50.786;4.332;2022-12-07T02:14:05;21.67;;;16.20;;
22770;SDS011;11552;50.786;4.332;2022-12-07T02:16:49;20.65;;;15.55;;
22770;SDS011;11552;50.786;4.332;2022-12-07T02:19:54;19.67;;;16.38;;
22770;SDS011;11552;50.786;4.332;2022-12-07T02:24:57;20.83;;;15.32;;
22770;SDS011;11552;50.786;4.332;2022-12-07T02:27:57;18.92;;;14.93;;
22770;SDS011;11552;50.786;4.332;2022-12-07T02:30:31;19.25;;;15.60;;
22770;SDS011;11552;50.786;4.332;2022-12-07T02:33:24;18.73;;;16.05;;
22770;SDS011;11552;50.786;4.332;2022-12-07T02:41:12;21.45;;;15.77;;
22770;SDS011;11552;50.786;4.332;2022-12-07T02:43:57;21.20;;;15.95;;
22770;SDS011;11552;50.786;4.332;2022-12-07T02:46:40;21.13;;;15.48;;
22770;SDS011;11552;50.786;4.332;2022-12-07T02:51:49;20.52;;;16.75;;
22770;SDS011;11552;50.786;4.332;2022-12-07T02:54:19;20.38;;;16.27;;
22770;SDS011;11552;50.786;4.332;2022-12-07T02:56:48;18.95;;;14.75;;
22770;SDS011;11552;50.786;4.332;2022-12-07T03:03:14;22.27;;;15.80;;
22770;SDS011;11552;50.786;4.332;2022-12-07T03:14:46;20.38;;;16.58;;
22770;SDS011;11552;50.786;4.332;2022-12-07T03:21:16;20.23;;;16.90;;
22770;SDS011;11552;50.786;4.332;2022-12-07T03:23:47;21.92;;;16.00;;
22770;SDS011;11552;50.786;4.332;2022-12-07T03:26:44;22.83;;;17.40;;
22770;SDS011;11552;50.786;4.332;2022-12-07T03:29:28;21.98;;;17.05;;
22770;SDS011;11552;50.786;4.332;2022-12-07T03:32:11;20.88;;;16.27;;
22770;SDS011;11552;50.786;4.332;2022-12-07T03:38:45;20.35;;;16.90;;
22770;SDS011;11552;50.786;4.332;2022-12-07T03:41:17;22.83;;;16.40;;
22770;SDS011;11552;50.786;4.332;2022-12-07T03:43:52;18.88;;;15.35;;
22770;SDS011;11552;50.786;4.332;2022-12-07T03:46:28;20.08;;;15.63;;
22770;SDS011;11552;50.786;4.332;2022-12-07T03:56:06;18.77;;;14.77;;
22770;SDS011;11552;50.786;4.332;2022-12-07T03:58:33;22.52;;;15.80;;
22770;SDS011;11552;50.786;4.332;2022-12-07T04:00:59;21.88;;;16.52;;
22770;SDS011;11552;50.786;4.332;2022-12-07T04:05:43;23.25;;;16.33;;
22770;SDS011;11552;50.786;4.332;2022-12-07T04:15:58;25.02;;;16.27;;
22770;SDS011;11552;50.786;4.332;2022-12-07T04:19:19;20.23;;;16.10;;
22770;SDS011;11552;50.786;4.332;2022-12-07T04:25:04;19.90;;;16.00;;
22770;SDS011;11552;50.786;4.332;2022-12-07T04:27:30;21.48;;;16.45;;
22770;SDS011;11552;50.786;4.332;2022-12-07T04:32:34;20.27;;;16.08;;
22770;SDS011;11552;50.786;4.332;2022-12-07T04:35:00;20.05;;;16.77;;
22770;SDS011;11552;50.786;4.332;2022-12-07T04:37:26;20.00;;;16.10;;
22770;SDS011;11552;50.786;4.332;2022-12-07T04:39:51;21.50;;;17.05;;
22770;SDS011;11552;50.786;4.332;2022-12-07T04:42:17;23.65;;;18.55;;
22770;SDS011;11552;50.786;4.332;2022-12-07T04:44:42;22.08;;;17.95;;
22770;SDS011;11552;50.786;4.332;2022-12-07T04:47:09;21.60;;;17.00;;
22770;SDS011;11552;50.786;4.332;2022-12-07T04:51:02;19.90;;;16.77;;
22770;SDS011;11552;50.786;4.332;2022-12-07T04:53:28;23.25;;;18.02;;
22770;SDS011;11552;50.786;4.332;2022-12-07T04:55:54;24.63;;;18.38;;
22770;SDS011;11552;50.786;4.332;2022-12-07T04:59:18;23.05;;;16.88;;
22770;SDS011;11552;50.786;4.332;2022-12-07T05:01:44;22.30;;;17.58;;
22770;SDS011;11552;50.786;4.332;2022-12-07T05:05:24;23.27;;;17.13;;
22770;SDS011;11552;50.786;4.332;2022-12-07T05:10:17;23.85;;;17.40;;
22770;SDS011;11552;50.786;4.332;2022-12-07T05:12:43;17.95;;;16.00;;
22770;SDS011;11552;50.786;4.332;2022-12-07T05:15:09;23.23;;;17.38;;
22770;SDS011;11552;50.786;4.332;2022-12-07T05:18:05;24.05;;;17.90;;
22770;SDS011;11552;50.786;4.332;2022-12-07T05:20:31;27.00;;;18.95;;
22770;SDS011;11552;50.786;4.332;2022-12-07T05:24:22;24.90;;;18.10;;
22770;SDS011;11552;50.786;4.332;2022-12-07T05:27:02;24.40;;;17.50;;
22770;SDS011;11552;50.786;4.332;2022-12-07T05:29:59;25.75;;;19.15;;
22770;SDS011;11552;50.786;4.332;2022-12-07T05:37:46;21.88;;;18.00;;
22770;SDS011;11552;50.786;4.332;2022-12-07T05:46:25;26.15;;;18.13;;
22770;SDS011;11552;50.786;4.332;2022-12-07T05:49:29;24.58;;;18.17;;
22770;SDS011;11552;50.786;4.332;2022-12-07T05:51:55;24.85;;;18.35;;
22770;SDS011;11552;50.786;4.332;2022-12-07T05:57:10;23.00;;;16.98;;
22770;SDS011;11552;50.786;4.332;2022-12-07T06:00:37;25.90;;;18.08;;
22770;SDS011;11552;50.786;4.332;2022-12-07T06:04:42;23.40;;;18.70;;
22770;SDS011;11552;50.786;4.332;2022-12-07T06:07:10;27.02;;;18.95;;
22770;SDS011;11552;50.786;4.332;2022-12-07T06:09:37;32.95;;;19.17;;
22770;SDS011;11552;50.786;4.332;2022-12-07T06:12:04;26.77;;;19.55;;
22770;SDS011;11552;50.786;4.332;2022-12-07T06:16:36;25.92;;;17.77;;
22770;SDS011;11552;50.786;4.332;2022-12-07T06:19:01;24.98;;;17.90;;
22770;SDS011;11552;50.786;4.332;2022-12-07T06:23:07;24.88;;;18.63;;
22770;SDS011;11552;50.786;4.332;2022-12-07T06:29:41;24.05;;;17.92;;
22770;SDS011;11552;50.786;4.332;2022-12-07T06:34:46;22.83;;;17.52;;
22770;SDS011;11552;50.786;4.332;2022-12-07T06:37:12;22.67;;;17.50;;
22770;SDS011;11552;50.786;4.332;2022-12-07T06:39:38;24.08;;;17.13;;
22770;SDS011;11552;50.786;4.332;2022-12-07T06:42:03;24.90;;;18.23;;
22770;SDS011;11552;50.786;4.332;2022-12-07T06:46:25;25.25;;;17.33;;
22770;SDS011;11552;50.786;4.332;2022-12-07T06:48:51;23.70;;;17.55;;
22770;SDS011;11552;50.786;4.332;2022-12-07T06:51:16;22.65;;;17.67;;
22770;SDS011;11552;50.786;4.332;2022-12-07T06:53:42;25.90;;;18.38;;
22770;SDS011;11552;50.786;4.332;2022-12-07T06:56:08;22.13;;;17.20;;
22770;SDS011;11552;50.786;4.332;2022-12-07T07:01:08;20.10;;;16.15;;
22770;SDS011;11552;50.786;4.332;2022-12-07T07:03:38;19.85;;;16.20;;
22770;SDS011;11552;50.786;4.332;2022-12-07T07:06:04;20.17;;;16.20;;
22770;SDS011;11552;50.786;4.332;2022-12-07T07:08:30;22.70;;;18.33;;
22770;SDS011;11552;50.786;4.332;2022-12-07T07:10:56;24.13;;;18.52;;
22770;SDS011;11552;50.786;4.332;2022-12-07T07:13:22;20.23;;;16.58;;
22770;SDS011;11552;50.786;4.332;2022-12-07T07:15:48;24.08;;;15.57;;
22770;SDS011;11552;50.786;4.332;2022-12-07T07:18:13;19.38;;;15.63;;
22770;SDS011;11552;50.786;4.332;2022-12-07T07:20:39;20.45;;;16.63;;
22770;SDS011;11552;50.786;4.332;2022-12-07T07:23:05;21.98;;;15.50;;
22770;SDS011;11552;50.786;4.332;2022-12-07T07:27:28;18.90;;;14.63;;
22770;SDS011;11552;50.786;4.332;2022-12-07T07:29:54;22.38;;;16.67;;
22770;SDS011;11552;50.786;4.332;2022-12-07T07:32:19;21.80;;;16.42;;
22770;SDS011;11552;50.786;4.332;2022-12-07T07:34:46;22.13;;;15.68;;
22770;SDS011;11552;50.786;4.332;2022-12-07T07:37:12;23.95;;;16.15;;
22770;SDS011;11552;50.786;4.332;2022-12-07T07:39:38;20.88;;;15.80;;
22770;SDS011;11552;50.786;4.332;2022-12-07T07:42:04;22.10;;;16.42;;
22770;SDS011;11552;50.786;4.332;2022-12-07T07:44:30;22.27;;;16.58;;
22770;SDS011;11552;50.786;4.332;2022-12-07T07:49:52;23.67;;;17.33;;
22770;SDS011;11552;50.786;4.332;2022-12-07T07:52:17;23.23;;;17.77;;
22770;SDS011;11552;50.786;4.332;2022-12-07T07:54:43;24.98;;;18.55;;
22770;SDS011;11552;50.786;4.332;2022-12-07T07:57:30;22.58;;;17.60;;
22770;SDS011;11552;50.786;4.332;2022-12-07T07:59:56;20.83;;;17.17;;
22770;SDS011;11552;50.786;4.332;2022-12-07T08:02:22;26.80;;;17.70;;
22770;SDS011;11552;50.786;4.332;2022-12-07T08:04:48;24.65;;;17.75;;
22770;SDS011;11552;50.786;4.332;2022-12-07T08:07:14;21.30;;;16.98;;
22770;SDS011;11552;50.786;4.332;2022-12-07T08:09:40;24.02;;;17.55;;
22770;SDS011;11552;50.786;4.332;2022-12-07T08:13:03;22.33;;;17.15;;
22770;SDS011;11552;50.786;4.332;2022-12-07T08:16:48;23.65;;;18.20;;
22770;SDS011;11552;50.786;4.332;2022-12-07T08:19:14;19.23;;;16.90;;
22770;SDS011;11552;50.786;4.332;2022-12-07T08:21:39;26.52;;;18.05;;
22770;SDS011;11552;50.786;4.332;2022-12-07T08:24:05;24.15;;;18.08;;
22770;SDS011;11552;50.786;4.332;2022-12-07T08:26:31;24.17;;;18.02;;
22770;SDS011;11552;50.786;4.332;2022-12-07T08:28:56;23.75;;;17.35;;
22770;SDS011;11552;50.786;4.332;2022-12-07T08:31:22;22.63;;;17.58;;
22770;SDS011;11552;50.786;4.332;2022-12-07T08:33:48;27.77;;;18.10;;
22770;SDS011;11552;50.786;4.332;2022-12-07T08:36:14;26.42;;;17.25;;
22770;SDS011;11552;50.786;4.332;2022-12-07T08:39:34;27.83;;;18.08;;
22770;SDS011;11552;50.786;4.332;2022-12-07T08:42:00;21.42;;;17.08;;
22770;SDS011;11552;50.786;4.332;2022-12-07T08:44:25;21.05;;;16.55;;
22770;SDS011;11552;50.786;4.332;2022-12-07T08:48:44;22.55;;;18.80;;
22770;SDS011;11552;50.786;4.332;2022-12-07T08:51:11;26.73;;;18.67;;
22770;SDS011;11552;50.786;4.332;2022-12-07T08:53:37;24.02;;;16.52;;
22770;SDS011;11552;50.786;4.332;2022-12-07T08:56:03;19.27;;;14.85;;
22770;SDS011;11552;50.786;4.332;2022-12-07T08:58:31;24.13;;;16.08;;
22770;SDS011;11552;50.786;4.332;2022-12-07T09:00:57;24.38;;;14.40;;
22770;SDS011;11552;50.786;4.332;2022-12-07T09:03:23;18.20;;;14.23;;
22770;SDS011;11552;50.786;4.332;2022-12-07T09:05:49;19.35;;;14.30;;
22770;SDS011;11552;50.786;4.332;2022-12-07T09:08:14;22.48;;;13.00;;
22770;SDS011;11552;50.786;4.332;2022-12-07T09:11:00;18.15;;;13.52;;
22770;SDS011;11552;50.786;4.332;2022-12-07T09:13:25;20.90;;;13.35;;
22770;SDS011;11552;50.786;4.332;2022-12-07T09:15:51;18.58;;;11.15;;
22770;SDS011;11552;50.786;4.332;2022-12-07T09:18:17;20.65;;;11.32;;
22770;SDS011;11552;50.786;4.332;2022-12-07T09:20:42;16.52;;;12.30;;
22770;SDS011;11552;50.786;4.332;2022-12-07T09:23:08;16.08;;;11.02;;
22770;SDS011;11552;50.786;4.332;2022-12-07T09:25:34;17.35;;;11.05;;
22770;SDS011;11552;50.786;4.332;2022-12-07T09:28:00;19.88;;;12.25;;
22770;SDS011;11552;50.786;4.332;2022-12-07T09:30:26;17.55;;;11.00;;
22770;SDS011;11552;50.786;4.332;2022-12-07T09:32:52;16.33;;;10.52;;
22770;SDS011;11552;50.786;4.332;2022-12-07T09:35:19;17.48;;;10.57;;
22770;SDS011;11552;50.786;4.332;2022-12-07T09:39:02;17.95;;;10.63;;
22770;SDS011;11552;50.786;4.332;2022-12-07T09:41:29;15.50;;;10.82;;
22770;SDS011;11552;50.786;4.332;2022-12-07T09:44:06;12.60;;;9.25;;
22770;SDS011;11552;50.786;4.332;2022-12-07T09:46:56;15.05;;;8.85;;
22770;SDS011;11552;50.786;4.332;2022-12-07T09:49:23;16.80;;;9.00;;
22770;SDS011;11552;50.786;4.332;2022-12-07T09:52:02;17.73;;;8.95;;
22770;SDS011;11552;50.786;4.332;2022-12-07T09:54:49;12.20;;;8.18;;
22770;SDS011;11552;50.786;4.332;2022-12-07T09:57:15;12.23;;;9.45;;
22770;SDS011;11552;50.786;4.332;2022-12-07T10:01:11;16.92;;;8.57;;
22770;SDS011;11552;50.786;4.332;2022-12-07T10:03:41;13.45;;;9.63;;
22770;SDS011;11552;50.786;4.332;2022-12-07T10:06:20;14.68;;;9.32;;
22770;SDS011;11552;50.786;4.332;2022-12-07T10:10:44;15.18;;;9.95;;
22770;SDS011;11552;50.786;4.332;2022-12-07T10:13:15;14.35;;;9.93;;
22770;SDS011;11552;50.786;4.332;2022-12-07T10:20:47;15.73;;;9.80;;
22770;SDS011;11552;50.786;4.332;2022-12-07T10:23:14;15.02;;;10.18;;
22770;SDS011;11552;50.786;4.332;2022-12-07T10:25:42;17.75;;;10.73;;
22770;SDS011;11552;50.786;4.332;2022-12-07T10:30:57;16.98;;;10.48;;
22770;SDS011;11552;50.786;4.332;2022-12-07T10:44:49;14.13;;;9.45;;
22770;SDS011;11552;50.786;4.332;2022-12-07T11:07:19;16.25;;;7.80;;
22770;SDS011;11552;50.786;4.332;2022-12-07T11:18:22;12.95;;;8.55;;
22770;SDS011;11552;50.786;4.332;2022-12-07T11:26:20;16.67;;;7.68;;
22770;SDS011;11552;50.786;4.332;2022-12-07T11:29:50;11.80;;;7.70;;
22770;SDS011;11552;50.786;4.332;2022-12-07T11:32:23;11.52;;;6.05;;
22770;SDS011;11552;50.786;4.332;2022-12-07T11:42:38;11.70;;;6.53;;
22770;SDS011;11552;50.786;4.332;2022-12-07T11:47:10;16.25;;;7.07;;
22770;SDS011;11552;50.786;4.332;2022-12-07T11:52:45;15.13;;;7.05;;
22770;SDS011;11552;50.786;4.332;2022-12-07T11:57:28;13.77;;;6.05;;
22770;SDS011;11552;50.786;4.332;2022-12-07T12:06:35;11.63;;;6.75;;
22770;SDS011;11552;50.786;4.332;2022-12-07T12:21:38;8.65;;;3.90;;
22770;SDS011;11552;50.786;4.332;2022-12-07T12:24:21;7.28;;;3.90;;
22770;SDS011;11552;50.786;4.332;2022-12-07T12:27:01;9.30;;;3.42;;
22770;SDS011;11552;50.786;4.332;2022-12-07T12:29:34;6.55;;;3.40;;
22770;SDS011;11552;50.786;4.332;2022-12-07T12:34:39;5.80;;;2.88;;
22770;SDS011;11552;50.786;4.332;2022-12-07T12:54:58;8.15;;;2.92;;
22770;SDS011;11552;50.786;4.332;2022-12-07T12:57:27;5.65;;;3.03;;
22770;SDS011;11552;50.786;4.332;2022-12-07T12:59:56;8.10;;;2.97;;
22770;SDS011;11552;50.786;4.332;2022-12-07T13:05:24;5.75;;;2.70;;
22770;SDS011;11552;50.786;4.332;2022-12-07T13:07:58;6.82;;;3.60;;
22770;SDS011;11552;50.786;4.332;2022-12-07T13:10:50;7.63;;;3.42;;
22770;SDS011;11552;50.786;4.332;2022-12-07T13:18:51;7.10;;;2.88;;
22770;SDS011;11552;50.786;4.332;2022-12-07T13:26:20;8.38;;;3.00;;
22770;SDS011;11552;50.786;4.332;2022-12-07T13:31:36;10.27;;;4.20;;
22770;SDS011;11552;50.786;4.332;2022-12-07T13:37:00;10.52;;;3.88;;
22770;SDS011;11552;50.786;4.332;2022-12-07T13:41:01;8.30;;;3.95;;
22770;SDS011;11552;50.786;4.332;2022-12-07T13:44:09;7.70;;;3.45;;
22770;SDS011;11552;50.786;4.332;2022-12-07T13:49:29;8.48;;;3.47;;
22770;SDS011;11552;50.786;4.332;2022-12-07T13:55:05;6.07;;;3.50;;
22770;SDS011;11552;50.786;4.332;2022-12-07T13:57:39;7.95;;;3.95;;
22770;SDS011;11552;50.786;4.332;2022-12-07T14:02:33;9.60;;;3.88;;
22770;SDS011;11552;50.786;4.332;2022-12-07T14:09:33;5.57;;;3.17;;
22770;SDS011;11552;50.786;4.332;2022-12-07T14:11:59;9.15;;;3.53;;
22770;SDS011;11552;50.786;4.332;2022-12-07T14:14:31;8.93;;;3.60;;
22770;SDS011;11552;50.786;4.332;2022-12-07T14:16:58;5.78;;;3.20;;
22770;SDS011;11552;50.786;4.332;2022-12-07T14:22:55;11.38;;;3.40;;
22770;SDS011;11552;50.786;4.332;2022-12-07T14:25:43;6.18;;;3.15;;
22770;SDS011;11552;50.786;4.332;2022-12-07T14:27:58;7.60;;;3.35;;
22770;SDS011;11552;50.786;4.332;2022-12-07T14:30:26;6.72;;;3.00;;
22770;SDS011;11552;50.786;4.332;2022-12-07T14:32:55;10.00;;;3.90;;
22770;SDS011;11552;50.786;4.332;2022-12-07T14:35:23;6.38;;;3.50;;
22770;SDS011;11552;50.786;4.332;2022-12-07T14:37:49;9.88;;;3.40;;
22770;SDS011;11552;50.786;4.332;2022-12-07T14:40:44;7.10;;;3.22;;
22770;SDS011;11552;50.786;4.332;2022-12-07T14:43:11;11.18;;;4.25;;
22770;SDS011;11552;50.786;4.332;2022-12-07T14:45:38;7.57;;;3.90;;
22770;SDS011;11552;50.786;4.332;2022-12-07T14:48:05;7.57;;;3.58;;
22770;SDS011;11552;50.786;4.332;2022-12-07T14:50:35;5.30;;;2.35;;
22770;SDS011;11552;50.786;4.332;2022-12-07T14:53:10;2.60;;;1.60;;
22770;SDS011;11552;50.786;4.332;2022-12-07T14:55:38;3.35;;;1.65;;
22770;SDS011;11552;50.786;4.332;2022-12-07T14:58:04;4.60;;;1.60;;
22770;SDS011;11552;50.786;4.332;2022-12-07T15:01:41;4.22;;;1.70;;
22770;SDS011;11552;50.786;4.332;2022-12-07T15:04:06;4.43;;;2.10;;
22770;SDS011;11552;50.786;4.332;2022-12-07T15:06:32;4.45;;;1.77;;
22770;SDS011;11552;50.786;4.332;2022-12-07T15:08:58;3.67;;;1.80;;
22770;SDS011;11552;50.786;4.332;2022-12-07T15:12:31;5.10;;;2.40;;
22770;SDS011;11552;50.786;4.332;2022-12-07T15:14:57;7.20;;;2.38;;
22770;SDS011;11552;50.786;4.332;2022-12-07T15:17:22;4.03;;;2.38;;
22770;SDS011;11552;50.786;4.332;2022-12-07T15:19:48;4.75;;;2.63;;
22770;SDS011;11552;50.786;4.332;2022-12-07T15:22:14;4.82;;;2.30;;
22770;SDS011;11552;50.786;4.332;2022-12-07T15:24:39;3.72;;;2.00;;
22770;SDS011;11552;50.786;4.332;2022-12-07T15:27:05;4.57;;;2.30;;
22770;SDS011;11552;50.786;4.332;2022-12-07T15:29:31;22.13;;;6.75;;
22770;SDS011;11552;50.786;4.332;2022-12-07T15:31:56;9.05;;;3.22;;
22770;SDS011;11552;50.786;4.332;2022-12-07T15:34:23;8.18;;;3.10;;
22770;SDS011;11552;50.786;4.332;2022-12-07T15:36:50;4.45;;;2.63;;
22770;SDS011;11552;50.786;4.332;2022-12-07T15:39:15;3.65;;;2.42;;
22770;SDS011;11552;50.786;4.332;2022-12-07T15:41:41;4.13;;;2.80;;
22770;SDS011;11552;50.786;4.332;2022-12-07T15:44:08;5.38;;;2.38;;
22770;SDS011;11552;50.786;4.332;2022-12-07T15:47:21;4.10;;;3.10;;
22770;SDS011;11552;50.786;4.332;2022-12-07T15:49:47;8.00;;;4.10;;
22770;SDS011;11552;50.786;4.332;2022-12-07T15:52:12;7.43;;;3.35;;
22770;SDS011;11552;50.786;4.332;2022-12-07T15:54:38;8.20;;;4.50;;
22770;SDS011;11552;50.786;4.332;2022-12-07T15:57:04;5.95;;;5.22;;
22770;SDS011;11552;50.786;4.332;2022-12-07T15:59:30;7.43;;;4.70;;
22770;SDS011;11552;50.786;4.332;2022-12-07T16:02:24;11.35;;;4.53;;
22770;SDS011;11552;50.786;4.332;2022-12-07T16:06:41;7.28;;;4.97;;
22770;SDS011;11552;50.786;4.332;2022-12-07T16:09:07;8.48;;;5.22;;
22770;SDS011;11552;50.786;4.332;2022-12-07T16:12:42;11.00;;;6.20;;
22770;SDS011;11552;50.786;4.332;2022-12-07T16:15:07;10.30;;;5.80;;
22770;SDS011;11552;50.786;4.332;2022-12-07T16:17:33;9.40;;;5.68;;
22770;SDS011;11552;50.786;4.332;2022-12-07T16:19:59;14.15;;;7.63;;
22770;SDS011;11552;50.786;4.332;2022-12-07T16:23:02;11.07;;;8.07;;
22770;SDS011;11552;50.786;4.332;2022-12-07T16:25:27;12.23;;;8.82;;
22770;SDS011;11552;50.786;4.332;2022-12-07T16:27:53;12.10;;;8.25;;
22770;SDS011;11552;50.786;4.332;2022-12-07T16:30:19;11.30;;;7.22;;
22770;SDS011;11552;50.786;4.332;2022-12-07T16:32:45;10.95;;;7.57;;
22770;SDS011;11552;50.786;4.332;2022-12-07T16:35:11;16.33;;;10.20;;
22770;SDS011;11552;50.786;4.332;2022-12-07T16:37:37;12.68;;;7.93;;
22770;SDS011;11552;50.786;4.332;2022-12-07T16:41:38;8.63;;;6.80;;
22770;SDS011;11552;50.786;4.332;2022-12-07T16:44:04;11.10;;;5.88;;
22770;SDS011;11552;50.786;4.332;2022-12-07T16:46:32;7.72;;;6.03;;
22770;SDS011;11552;50.786;4.332;2022-12-07T16:49:40;9.45;;;6.68;;
22770;SDS011;11552;50.786;4.332;2022-12-07T16:52:07;7.93;;;6.50;;
22770;SDS011;11552;50.786;4.332;2022-12-07T16:56:40;12.75;;;6.68;;
22770;SDS011;11552;50.786;4.332;2022-12-07T17:00:04;12.95;;;9.95;;
22770;SDS011;11552;50.786;4.332;2022-12-07T17:02:30;14.88;;;10.05;;
22770;SDS011;11552;50.786;4.332;2022-12-07T17:04:56;8.70;;;5.50;;
22770;SDS011;11552;50.786;4.332;2022-12-07T17:07:21;9.85;;;5.72;;
22770;SDS011;11552;50.786;4.332;2022-12-07T17:09:47;8.00;;;4.70;;
22770;SDS011;11552;50.786;4.332;2022-12-07T17:13:21;9.43;;;5.70;;
22770;SDS011;11552;50.786;4.332;2022-12-07T17:16:05;8.10;;;5.35;;
22770;SDS011;11552;50.786;4.332;2022-12-07T17:18:33;9.07;;;6.38;;
22770;SDS011;11552;50.786;4.332;2022-12-07T17:21:04;10.48;;;6.97;;
22770;SDS011;11552;50.786;4.332;2022-12-07T17:23:44;9.95;;;6.25;;
22770;SDS011;11552;50.786;4.332;2022-12-07T17:26:11;13.73;;;6.57;;
22770;SDS011;11552;50.786;4.332;2022-12-07T17:28:39;13.43;;;6.93;;
22770;SDS011;11552;50.786;4.332;2022-12-07T17:31:06;11.13;;;6.97;;
22770;SDS011;11552;50.786;4.332;2022-12-07T17:33:33;8.88;;;6.38;;
22770;SDS011;11552;50.786;4.332;2022-12-07T17:36:39;7.38;;;5.05;;
22770;SDS011;11552;50.786;4.332;2022-12-07T17:39:06;7.63;;;4.88;;
22770;SDS011;11552;50.786;4.332;2022-12-07T17:41:36;10.48;;;6.18;;
22770;SDS011;11552;50.786;4.332;2022-12-07T17:44:21;7.75;;;5.78;;
22770;SDS011;11552;50.786;4.332;2022-12-07T17:46:48;11.40;;;6.60;;
22770;SDS011;11552;50.786;4.332;2022-12-07T17:49:19;9.75;;;7.03;;
22770;SDS011;11552;50.786;4.332;2022-12-07T17:51:45;10.80;;;6.75;;
22770;SDS011;11552;50.786;4.332;2022-12-07T17:54:29;13.15;;;8.55;;
22770;SDS011;11552;50.786;4.332;2022-12-07T17:56:54;12.45;;;8.55;;
22770;SDS011;11552;50.786;4.332;2022-12-07T17:59:20;17.65;;;10.23;;
22770;SDS011;11552;50.786;4.332;2022-12-07T18:01:46;14.60;;;9.77;;
22770;SDS011;11552;50.786;4.332;2022-12-07T18:04:11;14.93;;;10.98;;
22770;SDS011;11552;50.786;4.332;2022-12-07T18:06:37;14.20;;;10.50;;
22770;SDS011;11552;50.786;4.332;2022-12-07T18:09:03;13.45;;;9.20;;
22770;SDS011;11552;50.786;4.332;2022-12-07T18:11:29;13.30;;;10.20;;
22770;SDS011;11552;50.786;4.332;2022-12-07T18:18:35;14.93;;;10.90;;
22770;SDS011;11552;50.786;4.332;2022-12-07T18:21:02;13.85;;;9.93;;
22770;SDS011;11552;50.786;4.332;2022-12-07T18:23:28;13.57;;;11.48;;
22770;SDS011;11552;50.786;4.332;2022-12-07T18:25:54;17.90;;;12.73;;
22770;SDS011;11552;50.786;4.332;2022-12-07T18:28:20;16.75;;;13.82;;
22770;SDS011;11552;50.786;4.332;2022-12-07T18:30:45;21.27;;;14.35;;
22770;SDS011;11552;50.786;4.332;2022-12-07T18:33:18;18.67;;;12.00;;
22770;SDS011;11552;50.786;4.332;2022-12-07T18:35:47;22.40;;;12.75;;
22770;SDS011;11552;50.786;4.332;2022-12-07T18:38:14;18.95;;;12.30;;
22770;SDS011;11552;50.786;4.332;2022-12-07T18:40:40;18.58;;;16.05;;
22770;SDS011;11552;50.786;4.332;2022-12-07T18:43:07;18.75;;;14.93;;
22770;SDS011;11552;50.786;4.332;2022-12-07T18:45:34;22.42;;;14.35;;
22770;SDS011;11552;50.786;4.332;2022-12-07T18:48:00;21.45;;;12.50;;
22770;SDS011;11552;50.786;4.332;2022-12-07T18:50:26;21.17;;;12.63;;
22770;SDS011;11552;50.786;4.332;2022-12-07T18:52:52;16.75;;;11.40;;
22770;SDS011;11552;50.786;4.332;2022-12-07T18:55:17;16.42;;;11.43;;
22770;SDS011;11552;50.786;4.332;2022-12-07T18:57:43;15.95;;;12.02;;
22770;SDS011;11552;50.786;4.332;2022-12-07T19:00:27;20.00;;;11.98;;
22770;SDS011;11552;50.786;4.332;2022-12-07T19:05:10;13.55;;;10.88;;
22770;SDS011;11552;50.786;4.332;2022-12-07T19:07:36;16.17;;;10.90;;
22770;SDS011;11552;50.786;4.332;2022-12-07T19:10:02;18.90;;;12.40;;
22770;SDS011;11552;50.786;4.332;2022-12-07T19:12:28;21.40;;;11.70;;
22770;SDS011;11552;50.786;4.332;2022-12-07T19:14:53;19.00;;;11.82;;
22770;SDS011;11552;50.786;4.332;2022-12-07T19:17:19;16.90;;;12.88;;
22770;SDS011;11552;50.786;4.332;2022-12-07T19:19:45;18.58;;;12.93;;
22770;SDS011;11552;50.786;4.332;2022-12-07T19:22:21;17.33;;;12.05;;
22770;SDS011;11552;50.786;4.332;2022-12-07T19:24:48;13.10;;;11.30;;
22770;SDS011;11552;50.786;4.332;2022-12-07T19:27:16;15.27;;;11.30;;
22770;SDS011;11552;50.786;4.332;2022-12-07T19:29:43;17.13;;;11.88;;
22770;SDS011;11552;50.786;4.332;2022-12-07T19:32:10;17.75;;;11.45;;
22770;SDS011;11552;50.786;4.332;2022-12-07T19:34:37;14.63;;;10.40;;
22770;SDS011;11552;50.786;4.332;2022-12-07T19:37:05;15.00;;;10.48;;
22770;SDS011;11552;50.786;4.332;2022-12-07T19:41:20;13.77;;;10.98;;
22770;SDS011;11552;50.786;4.332;2022-12-07T19:43:58;20.08;;;11.85;;
22770;SDS011;11552;50.786;4.332;2022-12-07T19:46:27;15.98;;;10.88;;